Time;durP1;ratioP1;P1;durP2;ratioP2;P2;SDS_P1;SDS_P2;PMS_P1;PMS_P2;Temp;Humidity;BMP_temperature;BMP_pressure;BME280_temperature;BME280_humidity;BME280_pressure;Samples;Min_cycle;Max_cycle;Signal;HPM_P1;HPM_P2
2021/12/08 00:01:59;;;;;;;3.08;2.20;;;;;;;2.17;89.54;98520.22;4891917;29;20033;-38
2021/12/08 00:04:24;;;;;;;2.70;2.25;;;;;;;2.23;90.55;98524.75;4890128;29;20347;-39
2021/12/08 00:06:50;;;;;;;3.55;2.55;;;;;;;2.33;88.54;98520.06;4897254;29;20024;-39
2021/12/08 00:09:35;;;;;;;4.07;2.65;;;;;;;2.43;88.78;98525.84;4876306;29;20033;-39
2021/12/08 00:14:44;;;;;;;3.03;2.20;;;;;;;2.29;88.79;98532.72;4878677;29;20488;-39
2021/12/08 00:17:10;;;;;;;3.00;2.20;;;;;;;2.33;89.23;98536.63;4878143;29;20036;-39
2021/12/08 00:19:35;;;;;;;3.15;2.28;;;;;;;2.27;89.13;98534.72;4878561;29;20029;-38
2021/12/08 00:22:01;;;;;;;2.78;2.17;;;;;;;2.29;89.07;98543.22;4888009;29;20032;-38
2021/12/08 00:24:26;;;;;;;2.70;2.15;;;;;;;2.17;90.04;98544.69;4896230;29;20045;-38
2021/12/08 00:26:54;;;;;;;2.63;2.10;;;;;;;2.33;89.46;98548.94;4896800;29;20051;-39
2021/12/08 00:29:20;;;;;;;2.85;2.10;;;;;;;2.23;88.71;98540.50;4895948;29;20481;-38
2021/12/08 00:31:46;;;;;;;2.78;2.17;;;;;;;2.45;88.77;98550.13;4896687;29;20033;-39
2021/12/08 00:34:12;;;;;;;3.00;2.20;;;;;;;2.28;89.55;98554.72;4896516;29;20032;-39
2021/12/08 00:36:42;;;;;;;4.75;1.92;;;;;;;2.06;90.48;98550.34;4896261;29;20472;-39
2021/12/08 00:39:08;;;;;;;3.03;2.28;;;;;;;2.27;90.52;98552.28;4896716;29;20048;-39
2021/12/08 00:41:33;;;;;;;2.92;2.28;;;;;;;2.26;89.56;98561.94;4896616;29;20040;-38
2021/12/08 00:43:59;;;;;;;2.92;2.08;;;;;;;2.19;89.53;98558.44;4896718;29;20047;-39
2021/12/08 00:46:24;;;;;;;2.80;1.98;;;;;;;2.36;89.81;98572.19;4896598;29;20055;-39
2021/12/08 00:48:51;;;;;;;2.72;2.03;;;;;;;2.31;89.33;98578.00;4896449;29;20472;-39
2021/12/08 00:51:17;;;;;;;2.25;1.88;;;;;;;2.19;88.95;98568.94;4896556;29;20509;-40
2021/12/08 00:53:43;;;;;;;2.97;2.05;;;;;;;2.29;89.47;98571.31;4896427;29;20111;-39
2021/12/08 00:56:08;;;;;;;2.88;1.80;;;;;;;2.17;89.72;98568.31;4896368;29;20031;-38
2021/12/08 00:58:33;;;;;;;2.72;1.90;;;;;;;2.49;88.82;98579.47;4896385;29;20446;-39
2021/12/08 01:00:59;;;;;;;2.75;2.10;;;;;;;2.44;88.59;98573.94;4896317;29;20024;-39
2021/12/08 01:03:24;;;;;;;2.63;2.05;;;;;;;2.41;88.58;98571.69;4896581;29;20057;-38
2021/12/08 01:05:54;;;;;;;2.92;1.80;;;;;;;2.47;88.50;98571.75;4896625;29;20469;-39
2021/12/08 01:08:21;;;;;;;4.15;2.10;;;;;;;2.45;89.24;98571.13;4897055;29;20024;-39
2021/12/08 01:10:48;;;;;;;3.10;2.00;;;;;;;2.41;88.37;98569.84;4896544;29;20039;-39
2021/12/08 01:13:13;;;;;;;3.92;2.05;;;;;;;2.31;88.48;98538.63;4896656;29;20092;-39
2021/12/08 01:15:40;;;;;;;2.50;2.03;;;;;;;2.62;90.20;98569.16;4896303;29;20516;-40
2021/12/08 01:18:06;;;;;;;2.70;2.03;;;;;;;2.54;87.83;98561.38;4879569;29;20389;-39
2021/12/08 01:20:31;;;;;;;2.20;1.80;;;;;;;2.62;87.69;98560.47;4896333;29;20033;-39
2021/12/08 01:22:57;;;;;;;2.78;2.13;;;;;;;2.61;87.68;98564.91;4896439;29;20033;-39
2021/12/08 01:25:22;;;;;;;2.05;1.73;;;;;;;2.31;89.39;98562.25;4879708;29;20032;-38
2021/12/08 01:27:48;;;;;;;2.88;1.67;;;;;;;2.27;88.90;98555.72;4896407;29;20025;-39
2021/12/08 01:30:13;;;;;;;1.73;1.48;;;;;;;2.23;89.49;98570.22;4896378;29;20390;-39
2021/12/08 01:32:39;;;;;;;2.60;2.10;;;;;;;2.21;89.49;98566.94;4895986;29;20100;-39
2021/12/08 01:35:05;;;;;;;3.15;1.70;;;;;;;2.28;89.27;98570.47;4896440;29;20063;-38
2021/12/08 01:37:31;;;;;;;2.33;1.80;;;;;;;2.39;88.30;98565.78;4895998;29;20053;-39
2021/12/08 01:39:57;;;;;;;2.50;1.80;;;;;;;2.34;89.15;98561.91;4895404;29;20044;-38
2021/12/08 01:42:34;;;;;;;2.70;2.00;;;;;;;2.35;89.04;98571.38;4896319;29;20028;-38
2021/12/08 01:47:43;;;;;;;2.10;1.90;;;;;;;2.61;86.98;98578.03;4896234;29;20083;-40
2021/12/08 01:50:09;;;;;;;2.50;1.92;;;;;;;2.68;86.49;98573.66;4896256;29;20021;-40
2021/12/08 01:52:34;;;;;;;2.30;1.80;;;;;;;2.60;87.32;98584.28;4896183;29;20032;-39
2021/12/08 01:55:00;;;;;;;3.33;2.20;;;;;;;2.25;88.05;98549.03;4896025;29;20036;-39
2021/12/08 01:57:25;;;;;;;2.22;1.92;;;;;;;2.64;87.17;98584.72;4895993;29;20092;-39
2021/12/08 01:59:51;;;;;;;2.97;2.05;;;;;;;2.55;87.29;98586.63;4879043;29;20032;-40
2021/12/08 02:02:16;;;;;;;2.83;2.00;;;;;;;2.38;88.43;98588.63;4895690;29;20031;-40
2021/12/08 02:04:42;;;;;;;2.35;1.80;;;;;;;2.43;87.82;98593.31;4895823;29;20036;-39
2021/12/08 02:07:07;;;;;;;2.80;1.90;;;;;;;2.51;87.73;98601.09;4895645;29;20028;-39
2021/12/08 02:09:33;;;;;;;2.20;2.00;;;;;;;2.42;88.69;98589.03;4895570;29;20055;-39
2021/12/08 02:11:58;;;;;;;2.72;2.00;;;;;;;2.34;88.98;98595.19;4895325;29;20052;-39
2021/12/08 02:14:24;;;;;;;2.55;1.73;;;;;;;2.42;87.57;98591.66;4895407;29;20028;-40
2021/12/08 02:16:51;;;;;;;2.85;1.92;;;;;;;2.54;87.31;98600.75;4895297;29;20032;-40
2021/12/08 02:19:16;;;;;;;2.22;2.00;;;;;;;2.58;86.38;98596.78;4895949;29;20032;-37
2021/12/08 02:21:42;;;;;;;2.63;1.90;;;;;;;2.62;86.68;98597.22;4895822;29;20021;-39
2021/12/08 02:24:13;;;;;;;2.47;1.90;;;;;;;2.58;86.90;98602.03;4895909;29;20029;-39
2021/12/08 02:26:41;;;;;;;2.67;1.85;;;;;;;2.66;86.88;98601.94;4895444;29;20101;-39
2021/12/08 02:29:09;;;;;;;2.25;1.85;;;;;;;2.72;86.39;98605.66;4895695;29;20056;-39
2021/12/08 02:31:45;;;;;;;2.90;2.00;;;;;;;2.72;86.13;98613.53;4895244;29;20039;-39
2021/12/08 02:48:01;;;;;;;1.98;1.60;;;;;;;2.74;84.80;98620.25;4895510;29;20089;-39
2021/12/08 02:50:38;;;;;;;2.25;2.00;;;;;;;2.86;84.59;98635.59;4895665;29;20478;-39
2021/12/08 02:53:04;;;;;;;2.80;2.10;;;;;;;2.68;84.82;98625.41;4897890;29;20039;-39
2021/12/08 02:55:29;;;;;;;2.83;2.10;;;;;;;2.61;84.92;98635.81;4899141;29;20036;-39
2021/12/08 02:57:55;;;;;;;2.47;1.80;;;;;;;2.81;84.50;98630.84;4882529;29;20020;-39
2021/12/08 03:00:24;;;;;;;3.72;2.17;;;;;;;2.68;84.29;98641.97;4898625;29;20346;-39
2021/12/08 03:02:50;;;;;;;3.45;2.20;;;;;;;2.82;83.86;98642.16;4898951;29;20029;-39
2021/12/08 03:05:16;;;;;;;2.80;2.10;;;;;;;2.90;83.50;98647.34;4898893;29;20028;-39
2021/12/08 03:07:42;;;;;;;3.60;2.30;;;;;;;3.07;82.86;98659.31;4898838;29;20497;-39
2021/12/08 03:10:10;;;;;;;4.00;2.40;;;;;;;3.03;83.09;98658.06;4898617;29;20028;-40
2021/12/08 03:12:35;;;;;;;3.90;2.45;;;;;;;2.98;82.51;98662.22;4866074;29;20346;-39
2021/12/08 03:15:01;;;;;;;3.03;2.13;;;;;;;3.10;81.71;98655.50;4898381;29;20048;-39
2021/12/08 03:17:26;;;;;;;3.15;2.10;;;;;;;2.92;82.41;98661.94;4898125;29;20036;-38
2021/12/08 03:19:52;;;;;;;2.67;1.88;;;;;;;2.80;82.88;98668.66;4898285;29;20016;-38
2021/12/08 03:22:18;;;;;;;2.80;2.20;;;;;;;2.99;82.55;98659.41;4898547;29;20036;-40
2021/12/08 03:24:46;;;;;;;3.33;2.28;;;;;;;3.06;82.85;98660.31;4898183;29;20033;-39
2021/12/08 03:27:15;;;;;;;3.00;2.20;;;;;;;2.93;82.50;98671.47;4898482;29;20024;-40
2021/12/08 03:32:24;;;;;;;2.97;2.05;;;;;;;3.06;82.36;98683.16;4898662;29;20036;-40
2021/12/08 03:34:51;;;;;;;4.05;2.40;;;;;;;2.83;82.03;98680.59;4897032;29;20401;-39
2021/12/08 03:37:19;;;;;;;2.90;2.25;;;;;;;2.97;81.50;98674.56;4898362;29;20049;-39
2021/12/08 03:39:45;;;;;;;3.47;2.47;;;;;;;2.73;82.80;98678.22;4898367;29;20542;-39
2021/12/08 03:42:11;;;;;;;3.03;2.10;;;;;;;2.68;83.14;98678.75;4898404;29;20104;-39
2021/12/08 03:44:37;;;;;;;3.25;2.35;;;;;;;2.75;82.34;98689.38;4898340;29;20468;-39
2021/12/08 03:47:04;;;;;;;3.00;2.33;;;;;;;2.85;82.40;98694.38;4898091;29;20025;-39
2021/12/08 03:49:30;;;;;;;3.35;2.45;;;;;;;3.17;81.48;98687.97;4898318;29;20514;-39
2021/12/08 03:51:59;;;;;;;3.45;2.35;;;;;;;3.23;80.85;98703.00;4898213;29;20036;-39
2021/12/08 03:54:24;;;;;;;3.83;2.60;;;;;;;2.93;81.81;98696.91;4866029;29;20032;-38
2021/12/08 03:56:50;;;;;;;5.68;2.60;;;;;;;2.97;82.09;98695.59;4898247;29;20028;-38
2021/12/08 03:59:15;;;;;;;4.32;2.55;;;;;;;3.01;81.84;98701.28;4898131;29;20020;-39
2021/12/08 04:01:41;;;;;;;3.00;2.28;;;;;;;3.02;80.15;98695.03;4889002;29;20027;-40
2021/12/08 04:04:08;;;;;;;3.75;2.33;;;;;;;2.96;80.64;98707.06;4897177;29;20028;-40
2021/12/08 04:06:53;;;;;;;3.67;2.42;;;;;;;2.90;80.88;98710.44;4898118;29;20024;-38
2021/12/08 04:09:27;;;;;;;4.15;2.50;;;;;;;2.90;81.15;98713.06;4883468;29;20480;-38
2021/12/08 04:11:53;;;;;;;3.58;2.38;;;;;;;3.02;79.91;98713.44;4896429;29;20036;-39
2021/12/08 04:14:20;;;;;;;3.40;2.40;;;;;;;3.01;79.87;98704.75;4897778;29;20035;-39
2021/12/08 04:16:52;;;;;;;4.00;2.75;;;;;;;3.08;79.35;98713.50;4880687;29;20115;-39
2021/12/08 04:19:18;;;;;;;3.40;2.50;;;;;;;3.18;79.32;98715.06;4898036;29;20032;-38
2021/12/08 04:21:43;;;;;;;3.85;2.58;;;;;;;3.13;78.08;98715.63;4897709;29;20036;-39
2021/12/08 04:24:09;;;;;;;3.95;2.67;;;;;;;2.80;77.88;98686.19;4897733;29;20116;-39
2021/12/08 04:26:50;;;;;;;3.63;2.70;;;;;;;3.11;78.30;98713.16;4897250;29;20040;-39
2021/12/08 04:29:17;;;;;;;4.00;2.78;;;;;;;3.06;78.16;98710.25;4897390;29;20116;-39
2021/12/08 04:31:44;;;;;;;4.45;2.83;;;;;;;3.10;78.44;98710.72;4897491;29;20119;-38
2021/12/08 04:34:15;;;;;;;5.13;3.15;;;;;;;3.13;77.29;98716.44;4897419;29;20075;-38
2021/12/08 04:36:44;;;;;;;3.28;2.72;;;;;;;3.20;77.36;98715.69;4897381;29;20541;-39
2021/12/08 04:39:17;;;;;;;4.25;2.90;;;;;;;3.17;77.21;98722.16;4896917;29;20036;-39
2021/12/08 04:41:48;;;;;;;4.65;2.78;;;;;;;3.19;76.27;98729.84;4878727;29;20065;-39
2021/12/08 04:52:18;;;;;;;4.03;2.85;;;;;;;3.38;76.36;98729.31;4878658;29;20612;-38
2021/12/08 05:03:39;;;;;;;3.97;3.00;;;;;;;3.48;74.96;98748.28;4896886;29;20453;-38
2021/12/08 05:08:15;;;;;;;4.65;2.83;;;;;;;3.37;74.77;98759.25;4896687;29;20028;-38
2021/12/08 05:10:41;;;;;;;4.18;3.10;;;;;;;3.43;74.31;98765.59;4896177;29;20533;-38
2021/12/08 05:13:07;;;;;;;4.57;2.85;;;;;;;3.38;74.79;98767.94;4882832;29;20104;-38
2021/12/08 05:15:39;;;;;;;4.80;3.03;;;;;;;3.46;74.41;98771.28;4877711;29;20099;-38
2021/12/08 05:18:15;;;;;;;4.03;2.85;;;;;;;3.57;74.57;98770.03;4870006;29;20365;-38
2021/12/08 05:20:43;;;;;;;4.82;3.20;;;;;;;3.43;74.29;98774.31;4896186;29;20033;-38
2021/12/08 05:23:13;;;;;;;9.30;5.47;;;;;;;3.28;74.55;98770.84;4896159;29;20088;-39
2021/12/08 05:25:39;;;;;;;7.85;4.10;;;;;;;3.38;75.05;98781.09;4895984;29;20032;-38
2021/12/08 05:28:07;;;;;;;4.32;2.95;;;;;;;3.51;74.97;98778.66;4884301;29;20100;-39
2021/12/08 05:30:39;;;;;;;4.53;2.97;;;;;;;3.78;73.47;98782.44;4878281;29;20036;-39
2021/12/08 05:33:05;;;;;;;5.05;4.03;;;;;;;3.96;73.05;98782.09;4892222;29;20036;-39
2021/12/08 05:35:31;;;;;;;5.20;3.40;;;;;;;3.76;73.42;98786.28;4895778;29;20044;-39
2021/12/08 05:37:56;;;;;;;7.18;4.50;;;;;;;3.57;73.46;98779.75;4895521;29;20106;-38
2021/12/08 05:40:29;;;;;;;4.45;3.40;;;;;;;3.59;74.11;98798.81;4895094;29;20024;-36
2021/12/08 05:42:54;;;;;;;4.65;3.20;;;;;;;3.75;73.25;98803.88;4894555;29;20111;-39
2021/12/08 05:45:20;;;;;;;5.07;3.20;;;;;;;3.76;72.93;98802.88;4893719;29;20138;-37
2021/12/08 05:47:46;;;;;;;5.45;3.60;;;;;;;3.50;73.59;98796.28;4892784;29;20088;-38
2021/12/08 05:50:13;;;;;;;5.57;3.30;;;;;;;3.66;73.04;98802.34;4891615;29;20086;-38
2021/12/08 05:52:38;;;;;;;6.93;4.45;;;;;;;3.87;72.17;98809.50;4892324;29;20033;-39
2021/12/08 05:55:05;;;;;;;5.93;3.75;;;;;;;3.96;72.33;98802.31;4893662;29;20036;-39
2021/12/08 05:57:38;;;;;;;14.30;7.32;;;;;;;3.69;72.53;98804.59;4893375;29;20154;-39
2021/12/08 06:00:22;;;;;;;5.88;4.07;;;;;;;3.69;73.35;98812.50;4893305;29;20025;-39
2021/12/08 06:02:48;;;;;;;5.53;3.53;;;;;;;3.56;72.88;98812.31;4894251;29;20349;-39
2021/12/08 06:05:13;;;;;;;5.57;3.60;;;;;;;3.47;73.02;98815.03;4894872;29;20088;-39
2021/12/08 06:07:39;;;;;;;6.80;4.45;;;;;;;3.63;72.80;98821.13;4895277;29;20100;-38
2021/12/08 06:10:09;;;;;;;9.35;5.20;;;;;;;3.62;72.05;98825.56;4894986;29;20181;-38
2021/12/08 06:12:34;;;;;;;6.78;4.25;;;;;;;3.46;72.78;98836.25;4895185;29;20025;-38
2021/12/08 06:15:00;;;;;;;6.18;4.15;;;;;;;3.59;72.54;98835.63;4895527;29;20067;-39
2021/12/08 06:17:27;;;;;;;7.18;4.30;;;;;;;3.81;71.84;98842.63;4895016;29;20040;-39
2021/12/08 06:19:53;;;;;;;7.18;4.28;;;;;;;3.46;73.35;98844.94;4894970;29;20040;-39
2021/12/08 06:22:19;;;;;;;5.78;3.33;;;;;;;3.53;72.60;98850.31;4862698;29;20036;-39
2021/12/08 06:24:45;;;;;;;5.32;3.63;;;;;;;3.50;72.76;98848.03;4894839;29;20029;-39
2021/12/08 06:27:10;;;;;;;6.95;4.28;;;;;;;3.52;72.62;98852.16;4898142;29;20023;-38
2021/12/08 06:29:36;;;;;;;5.80;3.97;;;;;;;3.70;72.14;98850.97;4899042;29;20037;-38
2021/12/08 06:32:03;;;;;;;6.10;3.97;;;;;;;3.53;72.85;98859.03;4899249;29;20029;-39
2021/12/08 06:34:28;;;;;;;5.78;3.92;;;;;;;3.55;72.96;98858.84;4898988;29;20123;-38
2021/12/08 06:37:12;;;;;;;7.97;4.75;;;;;;;3.68;72.19;98861.69;4898841;29;20060;-37
2021/12/08 06:40:06;;;;;;;7.93;4.28;;;;;;;3.63;73.46;98863.22;4898853;29;20074;-38
2021/12/08 06:42:33;;;;;;;8.48;4.93;;;;;;;3.67;72.05;98870.56;4881767;29;20477;-38
2021/12/08 06:44:58;;;;;;;7.50;4.65;;;;;;;3.78;72.12;98889.56;4898693;29;20092;-38
2021/12/08 06:47:26;;;;;;;8.35;5.13;;;;;;;3.88;71.40;98879.56;4898853;29;20123;-38
2021/12/08 06:49:53;;;;;;;7.50;4.97;;;;;;;3.64;72.14;98886.72;4898404;29;20028;-37
2021/12/08 06:52:25;;;;;;;7.50;5.07;;;;;;;3.80;71.71;98885.72;4898195;29;20460;-38
2021/12/08 06:54:56;;;;;;;7.68;4.45;;;;;;;3.62;71.47;98886.09;4898537;29;20020;-38
2021/12/08 06:57:28;;;;;;;8.70;5.20;;;;;;;3.86;71.74;98899.97;4898511;29;20021;-38
2021/12/08 07:00:13;;;;;;;9.35;5.65;;;;;;;3.96;71.58;98900.56;4898780;29;20033;-38
2021/12/08 07:02:54;;;;;;;8.95;5.55;;;;;;;3.87;72.12;98899.00;4898375;29;20036;-38
2021/12/08 07:05:52;;;;;;;9.10;5.88;;;;;;;3.95;71.13;98900.72;4898369;29;20032;-38
2021/12/08 07:08:16;;;;;;;10.02;5.57;;;;;;;3.96;71.79;98907.63;4898387;29;20104;-38
2021/12/08 07:10:43;;;;;;;9.98;5.97;;;;;;;3.98;71.17;98898.56;4898409;29;20115;-38
2021/12/08 07:13:11;;;;;;;10.68;6.13;;;;;;;4.24;70.88;98905.97;4898460;29;20047;-37
2021/12/08 07:15:45;;;;;;;11.15;6.50;;;;;;;4.18;70.49;98901.44;4898435;29;20036;-38
2021/12/08 07:18:25;;;;;;;10.18;5.72;;;;;;;4.01;69.97;98900.81;4898497;29;20032;-38
2021/12/08 07:20:53;;;;;;;11.87;6.80;;;;;;;4.15;69.84;98899.19;4898340;29;20557;-39
2021/12/08 07:23:24;;;;;;;11.93;7.03;;;;;;;4.15;69.88;98904.47;4898205;29;20368;-38
2021/12/08 07:25:50;;;;;;;14.55;7.85;;;;;;;4.53;69.15;98914.84;4898275;29;20561;-38
2021/12/08 07:28:16;;;;;;;23.33;11.75;;;;;;;4.65;69.41;98926.56;4898145;29;20024;-38
2021/12/08 07:30:49;;;;;;;11.95;7.10;;;;;;;4.51;69.41;98919.47;4898198;29;20079;-39
2021/12/08 07:33:14;;;;;;;12.60;7.50;;;;;;;4.49;69.99;98929.38;4898429;29;20029;-39
2021/12/08 07:35:46;;;;;;;11.27;6.75;;;;;;;4.29;69.96;98914.16;4897679;29;20111;-38
2021/12/08 07:38:14;;;;;;;12.48;6.95;;;;;;;4.24;70.41;98924.41;4896347;29;20119;-38
2021/12/08 07:41:06;;;;;;;13.70;7.47;;;;;;;4.26;70.71;98932.94;4897656;29;20024;-38
2021/12/08 07:43:32;;;;;;;14.05;7.00;;;;;;;4.33;69.68;98922.50;4897626;29;20062;-37
2021/12/08 07:46:05;;;;;;;12.55;7.90;;;;;;;4.45;69.24;98928.13;4897704;29;20478;-39
2021/12/08 07:48:43;;;;;;;12.85;8.20;;;;;;;4.67;69.13;98929.00;4896500;29;20409;-38
2021/12/08 07:51:31;;;;;;;12.35;7.55;;;;;;;4.67;67.80;98929.81;4865826;29;20180;-38
2021/12/08 07:53:57;;;;;;;37.38;16.85;;;;;;;4.78;68.21;98936.44;4897522;29;20046;-38
2021/12/08 07:56:23;;;;;;;13.00;8.18;;;;;;;4.87;67.85;98929.22;4880698;29;20055;-38
2021/12/08 07:58:51;;;;;;;11.88;7.30;;;;;;;4.66;68.03;98940.53;4897266;29;20029;-38
2021/12/08 08:01:29;;;;;;;13.38;7.80;;;;;;;4.62;68.55;98934.00;4897561;29;20032;-39
2021/12/08 08:03:55;;;;;;;14.98;8.30;;;;;;;4.83;68.75;98944.59;4865505;29;20052;-38
2021/12/08 08:06:25;;;;;;;16.17;8.57;;;;;;;5.13;68.60;98931.31;4897404;29;20056;-38
2021/12/08 08:08:51;;;;;;;15.07;8.95;;;;;;;5.18;68.64;98936.00;4897217;29;20035;-38
2021/12/08 08:11:28;;;;;;;13.68;7.88;;;;;;;5.49;66.43;98936.50;4880570;29;20028;-38
2021/12/08 08:13:54;;;;;;;14.52;8.85;;;;;;;5.36;67.57;98938.22;4897184;29;20032;-38
2021/12/08 08:16:22;;;;;;;16.55;8.70;;;;;;;5.11;67.56;98937.78;4897036;29;20508;-38
2021/12/08 08:18:52;;;;;;;12.65;7.72;;;;;;;5.00;67.45;98931.19;4896991;29;20033;-38
2021/12/08 08:21:20;;;;;;;16.50;9.27;;;;;;;5.33;67.85;98935.97;4896642;29;20041;-38
2021/12/08 08:23:46;;;;;;;19.58;8.95;;;;;;;5.75;65.74;98940.41;4881131;29;20039;-38
2021/12/08 08:26:12;;;;;;;13.88;8.27;;;;;;;5.04;67.00;98943.78;4897121;29;20032;-38
2021/12/08 08:28:38;;;;;;;16.85;9.63;;;;;;;5.23;67.56;98949.47;4896988;29;20036;-38
2021/12/08 08:31:10;;;;;;;16.30;9.57;;;;;;;5.14;67.88;98950.59;4897111;29;20099;-38
2021/12/08 08:33:36;;;;;;;19.25;9.63;;;;;;;5.16;68.55;98952.06;4896459;29;20033;-39
2021/12/08 08:36:06;;;;;;;18.80;9.48;;;;;;;5.49;67.47;98956.81;4892345;29;20189;-37
2021/12/08 08:38:34;;;;;;;17.92;9.90;;;;;;;5.85;67.31;98955.91;4878088;29;20040;-38
2021/12/08 08:41:12;;;;;;;17.85;9.73;;;;;;;5.58;66.14;98953.06;4878050;29;20498;-38
2021/12/08 08:43:37;;;;;;;19.88;10.77;;;;;;;5.61;67.19;98955.28;4876964;29;20025;-38
2021/12/08 08:46:26;;;;;;;17.85;9.85;;;;;;;5.84;66.92;98957.69;4877066;29;20138;-38
2021/12/08 08:48:57;;;;;;;18.05;10.25;;;;;;;5.75;67.32;98950.94;4877658;29;20036;-39
2021/12/08 08:51:30;;;;;;;19.38;10.10;;;;;;;5.77;66.41;98954.22;4877570;29;20037;-37
2021/12/08 08:53:58;;;;;;;17.50;10.23;;;;;;;5.77;66.22;98956.84;4877477;29;20032;-38
2021/12/08 08:56:30;;;;;;;18.50;9.98;;;;;;;5.78;66.81;98949.75;4877728;29;20033;-38
2021/12/08 08:59:01;;;;;;;19.20;9.40;;;;;;;5.63;66.64;98957.75;4877450;29;20133;-38
2021/12/08 09:01:35;;;;;;;17.65;9.70;;;;;;;5.75;65.86;98950.13;4875988;29;20043;-38
2021/12/08 09:04:08;;;;;;;18.55;9.38;;;;;;;5.73;66.34;98955.63;4877378;29;20378;-38
2021/12/08 09:06:37;;;;;;;17.65;9.70;;;;;;;5.89;66.65;98957.13;4877554;29;20029;-38
2021/12/08 09:09:05;;;;;;;16.70;9.45;;;;;;;5.55;66.81;98944.69;4877680;29;20033;-37
2021/12/08 09:11:34;;;;;;;15.30;8.68;;;;;;;5.53;66.94;98942.25;4877453;29;20036;-38
2021/12/08 09:14:06;;;;;;;17.17;9.57;;;;;;;5.63;66.82;98936.63;4860544;29;20033;-39
2021/12/08 09:16:45;;;;;;;16.67;9.98;;;;;;;5.80;66.10;98943.25;4877329;29;20037;-39
2021/12/08 09:19:16;;;;;;;17.80;9.98;;;;;;;5.99;66.04;98938.34;4877094;29;20529;-41
2021/12/08 09:22:01;;;;;;;20.08;10.68;;;;;;;5.52;66.97;98940.63;4876192;29;20056;-39
2021/12/08 09:24:52;;;;;;;19.90;10.60;;;;;;;5.58;67.71;98934.56;4876770;29;20037;-38
2021/12/08 09:27:24;;;;;;;20.85;11.30;;;;;;;6.57;64.71;98936.22;4869495;29;20089;-38
2021/12/08 09:29:57;;;;;;;20.88;12.20;;;;;;;6.05;65.72;98945.47;4877742;29;20032;-38
2021/12/08 09:32:34;;;;;;;19.83;10.45;;;;;;;5.92;65.57;98938.28;4877419;29;20164;-40
2021/12/08 09:35:03;;;;;;;17.63;10.07;;;;;;;6.26;65.40;98941.94;4878501;29;20029;-41
2021/12/08 09:37:34;;;;;;;22.27;10.97;;;;;;;6.25;65.24;98935.84;4893303;29;20060;-39
2021/12/08 09:40:09;;;;;;;19.48;10.35;;;;;;;6.78;63.49;98934.47;4896069;29;20284;-38
2021/12/08 09:42:41;;;;;;;18.02;9.68;;;;;;;6.70;63.36;98924.91;4874198;29;20064;-38
2021/12/08 09:45:09;;;;;;;20.13;10.77;;;;;;;6.50;64.37;98902.84;4887212;29;20033;-39
2021/12/08 09:47:34;;;;;;;20.27;10.88;;;;;;;6.57;63.89;98917.72;4884897;29;20032;-53
2021/12/08 09:50:03;;;;;;;23.08;11.25;;;;;;;6.29;64.57;98927.56;4881091;29;20025;-50
2021/12/08 09:52:30;;;;;;;20.27;11.03;;;;;;;6.42;64.92;98932.91;4876610;29;20083;-52
2021/12/08 09:54:59;;;;;;;18.58;10.80;;;;;;;6.30;64.56;98921.25;4876225;29;20028;-50
2021/12/08 09:57:25;;;;;;;35.00;19.50;;;;;;;6.17;65.53;98927.25;4876536;29;20028;-51
2021/12/08 09:59:51;;;;;;;19.77;12.05;;;;;;;6.76;63.81;98918.81;4875475;29;20096;-50
2021/12/08 10:02:26;;;;;;;19.65;10.90;;;;;;;6.65;63.74;98928.13;4892071;29;20095;-50
2021/12/08 10:04:52;;;;;;;17.20;10.13;;;;;;;6.38;64.14;98927.19;4895374;29;20033;-51
2021/12/08 10:07:18;;;;;;;17.00;10.18;;;;;;;6.64;63.51;98936.25;4895494;29;20551;-49
2021/12/08 10:09:43;;;;;;;16.20;10.18;;;;;;;6.32;63.83;98924.50;4878444;29;20092;-53
2021/12/08 10:12:09;;;;;;;17.52;9.82;;;;;;;6.81;63.58;98929.59;4877633;29;20024;-50
2021/12/08 10:14:35;;;;;;;16.70;9.57;;;;;;;6.97;62.39;98932.91;4894774;29;20034;-51
2021/12/08 10:17:00;;;;;;;18.15;10.43;;;;;;;7.36;62.44;98928.69;4894639;29;20028;-51
2021/12/08 10:19:26;;;;;;;17.10;10.18;;;;;;;8.36;60.03;98925.94;4893023;29;20028;-50
2021/12/08 10:21:51;;;;;;;16.85;9.30;;;;;;;8.63;58.80;98921.38;4892970;29;20458;-52
2021/12/08 10:24:22;;;;;;;20.73;10.18;;;;;;;8.60;58.30;98911.19;4892998;29;20118;-49
2021/12/08 10:26:49;;;;;;;15.50;8.85;;;;;;;8.46;57.89;98923.69;4892735;29;20032;-50
2021/12/08 10:29:14;;;;;;;14.60;8.57;;;;;;;7.97;59.16;98914.41;4893203;29;20020;-49
2021/12/08 10:31:44;;;;;;;14.57;9.02;;;;;;;7.96;59.55;98918.09;4893644;29;20168;-48
2021/12/08 10:36:55;;;;;;;16.23;9.68;;;;;;;8.66;59.00;98918.28;4893868;29;20063;-50
2021/12/08 10:39:28;;;;;;;14.10;8.98;;;;;;;9.31;56.85;98918.13;4877733;29;20508;-51
2021/12/08 10:42:22;;;;;;;16.13;9.85;;;;;;;8.89;57.38;98914.31;4894377;29;20037;-48
2021/12/08 10:45:08;;;;;;;14.27;8.80;;;;;;;8.38;57.69;98910.63;4891955;29;20504;-49
2021/12/08 10:47:43;;;;;;;14.32;9.25;;;;;;;8.45;58.07;98919.38;4894555;29;20517;-50
2021/12/08 10:55:31;;;;;;;10.95;6.43;;;;;;;8.36;56.81;98918.78;4894468;29;20130;-48
2021/12/08 10:57:56;;;;;;;11.88;7.43;;;;;;;8.16;56.95;98908.22;4894226;29;20413;-49
2021/12/08 11:00:29;;;;;;;11.35;7.28;;;;;;;7.66;57.43;98907.13;4894526;29;20029;-52
2021/12/08 11:03:08;;;;;;;12.27;7.28;;;;;;;7.52;57.93;98904.47;4894168;29;20028;-50
2021/12/08 11:05:45;;;;;;;13.90;7.57;;;;;;;7.82;58.72;98915.44;4879443;29;20033;-51
2021/12/08 11:08:11;;;;;;;16.00;8.60;;;;;;;8.21;57.66;98921.69;4894638;29;20128;-55
2021/12/08 11:10:42;;;;;;;13.15;8.35;;;;;;;8.68;55.75;98916.25;4894712;29;20095;-50
2021/12/08 11:13:08;;;;;;;14.63;7.78;;;;;;;8.20;56.66;98930.66;4896823;29;20040;-49
2021/12/08 11:15:34;;;;;;;14.40;8.02;;;;;;;8.10;56.88;98926.81;4898051;29;20028;-49
2021/12/08 11:18:13;;;;;;;12.68;8.20;;;;;;;7.97;57.55;98914.41;4897995;29;20032;-52
2021/12/08 11:21:05;;;;;;;12.80;7.88;;;;;;;8.25;56.89;98914.13;4897257;29;20055;-52
2021/12/08 11:23:48;;;;;;;32.38;16.23;;;;;;;8.48;56.98;98916.31;4895105;29;20507;-50
2021/12/08 11:26:20;;;;;;;13.68;8.27;;;;;;;8.50;56.65;98911.63;4897730;29;20032;-50
2021/12/08 11:28:53;;;;;;;13.57;7.80;;;;;;;8.74;54.96;98910.09;4897326;29;20024;-53
2021/12/08 11:31:19;;;;;;;13.23;8.23;;;;;;;8.70;55.68;98913.38;4898389;29;20032;-50
2021/12/08 11:33:51;;;;;;;12.25;7.60;;;;;;;7.99;56.71;98920.31;4897497;29;20409;-50
2021/12/08 11:36:21;;;;;;;14.10;8.25;;;;;;;8.14;57.16;98926.19;4897984;29;20136;-50
2021/12/08 11:38:48;;;;;;;14.43;8.40;;;;;;;8.19;57.11;98912.31;4897592;29;20039;-51
2021/12/08 11:41:40;;;;;;;12.18;8.07;;;;;;;8.29;57.28;98925.13;4897237;29;20100;-50
2021/12/08 11:44:11;;;;;;;13.07;8.13;;;;;;;8.90;55.44;98924.72;4897170;29;20048;-51
2021/12/08 11:46:38;;;;;;;13.98;8.18;;;;;;;8.78;55.27;98932.53;4896987;29;20108;-50
2021/12/08 11:49:06;;;;;;;12.82;8.32;;;;;;;9.00;55.48;98934.84;4897299;29;20020;-53
2021/12/08 11:52:10;;;;;;;12.38;7.97;;;;;;;8.81;55.25;98923.31;4897049;29;20084;-51
2021/12/08 11:55:03;;;;;;;13.23;8.35;;;;;;;8.91;54.72;98925.50;4897338;29;20052;-50
2021/12/08 11:57:46;;;;;;;14.35;8.38;;;;;;;8.60;55.78;98911.19;4893725;29;20067;-50
2021/12/08 12:00:15;;;;;;;15.07;8.52;;;;;;;8.53;55.52;98916.53;4882212;29;20111;-52
2021/12/08 12:02:45;;;;;;;11.70;7.10;;;;;;;8.43;55.42;98915.31;4896895;29;20024;-51
2021/12/08 12:05:16;;;;;;;10.38;7.18;;;;;;;8.11;56.63;98909.88;4896883;29;20032;-51
2021/12/08 12:07:41;;;;;;;14.85;7.93;;;;;;;8.08;56.92;98926.22;4896724;29;20076;-49
2021/12/08 12:10:12;;;;;;;13.40;8.05;;;;;;;8.04;56.85;98925.81;4896898;29;20036;-49
2021/12/08 12:12:39;;;;;;;14.27;9.68;;;;;;;8.77;55.96;98928.22;4896687;29;20332;-49
2021/12/08 12:15:06;;;;;;;13.25;8.40;;;;;;;9.07;54.29;98914.41;4896802;29;20056;-51
2021/12/08 12:17:31;;;;;;;13.00;8.05;;;;;;;8.69;55.63;98927.69;4879767;29;20505;-49
2021/12/08 12:19:57;;;;;;;12.80;8.35;;;;;;;9.00;55.20;98933.03;4896905;29;20071;-49
2021/12/08 12:22:52;;;;;;;12.75;8.05;;;;;;;8.76;55.66;98923.16;4896742;29;20114;-48
2021/12/08 12:25:43;;;;;;;14.68;8.90;;;;;;;8.36;56.22;98925.94;4896389;29;20046;-50
2021/12/08 12:28:24;;;;;;;15.25;8.88;;;;;;;8.43;56.34;98926.75;4896816;29;20032;-49
2021/12/08 12:31:25;;;;;;;15.40;9.10;;;;;;;8.21;56.86;98920.88;4880686;29;20021;-52
2021/12/08 12:33:51;;;;;;;11.77;7.18;;;;;;;7.99;57.48;98923.75;4891092;29;20048;-49
2021/12/08 12:36:19;;;;;;;13.88;7.97;;;;;;;8.63;55.82;98939.13;4896916;29;20105;-51
2021/12/08 12:38:45;;;;;;;11.98;7.57;;;;;;;8.50;55.73;98935.50;4896744;29;20056;-50